createdAt,value
2023-01-19T00:01:16.100Z,9.60
2023-01-19T00:06:18.297Z,11.88
2023-01-19T00:11:19.905Z,11.55
2023-01-19T00:16:21.924Z,12.85
2023-01-19T00:21:23.477Z,15.05
2023-01-19T00:26:25.041Z,12.52
2023-01-19T00:31:26.588Z,9.60
2023-01-19T00:36:28.318Z,10.70
2023-01-19T00:41:29.775Z,10.50
2023-01-19T00:46:31.226Z,11.68
2023-01-19T00:51:32.695Z,9.40
2023-01-19T00:56:34.251Z,10.98
2023-01-19T01:01:45.002Z,11.48
2023-01-19T01:06:51.743Z,10.10
2023-01-19T01:11:53.341Z,11.55
2023-01-19T01:16:54.843Z,11.18
2023-01-19T01:21:56.403Z,11.10
2023-01-19T01:26:57.958Z,11.20
2023-01-19T01:31:59.502Z,11.75
2023-01-19T01:37:01.021Z,12.32
2023-01-19T01:42:03.706Z,9.65
2023-01-19T01:47:05.352Z,12.48
2023-01-19T01:52:07.310Z,16.38
2023-01-19T01:57:10.744Z,12.93
2023-01-19T02:02:23.215Z,14.20
2023-01-19T02:07:38.276Z,10.13
2023-01-19T02:12:39.857Z,10.25
2023-01-19T02:17:41.955Z,11.25
2023-01-19T02:22:49.563Z,13.93
2023-01-19T02:27:52.701Z,11.57
2023-01-19T02:32:54.281Z,10.75
2023-01-19T02:37:56.757Z,13.32
2023-01-19T02:42:59.854Z,9.60
2023-01-19T02:48:01.710Z,12.45
2023-01-19T02:53:21.259Z,14.95
2023-01-19T02:58:44.976Z,12.68
2023-01-19T03:03:53.757Z,9.57
2023-01-19T03:09:02.849Z,11.47
2023-01-19T03:14:14.100Z,11.98
2023-01-19T03:19:22.297Z,13.50
2023-01-19T03:24:26.960Z,11.05
2023-01-19T03:29:32.386Z,12.75
2023-01-19T03:34:35.013Z,11.80
2023-01-19T03:39:37.068Z,10.95
2023-01-19T03:44:41.095Z,11.55
2023-01-19T03:49:45.602Z,12.43
2023-01-19T03:54:47.136Z,11.13
2023-01-19T03:59:48.664Z,11.30
2023-01-19T04:04:50.530Z,9.53
2023-01-19T04:09:51.962Z,9.90
2023-01-19T04:14:53.416Z,11.33
2023-01-19T04:19:54.878Z,15.30
2023-01-19T04:24:56.331Z,11.97
2023-01-19T04:29:57.787Z,11.30
2023-01-19T04:34:59.643Z,11.23
2023-01-19T04:40:01.157Z,12.30
2023-01-19T04:45:02.692Z,12.13
2023-01-19T04:50:04.838Z,10.73
2023-01-19T04:55:07.059Z,10.60
2023-01-19T05:00:09.210Z,10.65
2023-01-19T05:05:11.533Z,13.60
2023-01-19T05:10:13.051Z,9.13
2023-01-19T05:15:14.635Z,11.45
2023-01-19T05:20:16.555Z,10.77
2023-01-19T05:25:18.595Z,9.98
2023-01-19T05:30:20.192Z,9.85
2023-01-19T05:35:31.354Z,9.53
2023-01-19T05:40:36.956Z,9.73
2023-01-19T05:45:38.535Z,9.17
2023-01-19T05:50:40.066Z,9.63
2023-01-19T05:55:41.640Z,9.10
2023-01-19T06:00:43.208Z,6.93
2023-01-19T06:05:44.688Z,10.73
2023-01-19T06:10:46.222Z,10.93
2023-01-19T06:15:47.741Z,8.00
2023-01-19T06:20:49.249Z,8.57
2023-01-19T06:25:50.752Z,9.93
2023-01-19T06:30:54.159Z,10.90
2023-01-19T06:35:56.226Z,11.82
2023-01-19T06:40:58.668Z,10.07
2023-01-19T06:46:00.706Z,10.10
2023-01-19T06:51:02.314Z,9.90
2023-01-19T06:56:04.524Z,12.13
2023-01-19T07:01:07.631Z,10.05
2023-01-19T07:06:09.414Z,9.35
2023-01-19T07:11:25.050Z,10.48
2023-01-19T07:16:32.003Z,9.70
2023-01-19T07:21:33.446Z,12.37
2023-01-19T07:26:34.974Z,10.05
2023-01-19T07:31:36.592Z,10.95
2023-01-19T07:36:38.230Z,11.27
2023-01-19T07:41:39.876Z,9.32
2023-01-19T07:46:41.816Z,9.32
2023-01-19T07:51:43.266Z,11.73
2023-01-19T07:56:44.768Z,8.73
2023-01-19T08:01:46.594Z,13.55
2023-01-19T08:06:48.142Z,10.70
2023-01-19T08:11:49.726Z,10.27
2023-01-19T08:16:51.441Z,11.23
2023-01-19T08:21:53.206Z,16.85
2023-01-19T08:26:59.750Z,13.00
2023-01-19T08:32:01.546Z,13.40
2023-01-19T08:37:03.202Z,12.60
2023-01-19T08:42:04.730Z,11.70
2023-01-19T08:47:06.332Z,9.75
2023-01-19T08:52:07.935Z,11.80
2023-01-19T08:57:09.478Z,13.63
2023-01-19T09:02:11.084Z,10.70
2023-01-19T09:07:12.705Z,13.07
2023-01-19T09:12:14.196Z,9.35
2023-01-19T09:17:15.632Z,10.73
2023-01-19T09:22:17.187Z,11.13
2023-01-19T09:27:18.654Z,9.10
2023-01-19T09:32:21.636Z,11.93
2023-01-19T09:37:23.122Z,13.65
2023-01-19T09:42:40.093Z,12.38
2023-01-19T09:47:42.373Z,10.60
2023-01-19T09:52:50.695Z,10.57
2023-01-19T09:57:53.200Z,9.70
2023-01-19T10:03:10.715Z,7.90
2023-01-19T10:08:46.174Z,9.55
2023-01-19T10:13:50.666Z,9.68
2023-01-19T10:18:56.517Z,14.13
2023-01-19T10:24:19.341Z,8.93
2023-01-19T10:29:35.575Z,9.23
2023-01-19T10:34:37.159Z,9.63
2023-01-19T10:39:40.715Z,9.18
2023-01-19T10:44:43.966Z,10.27
2023-01-19T10:49:46.899Z,8.55
2023-01-19T10:54:48.501Z,8.60
2023-01-19T10:59:50.606Z,7.20
2023-01-19T11:04:54.935Z,8.32
2023-01-19T11:10:13.719Z,8.20
2023-01-19T11:15:20.878Z,7.20
2023-01-19T11:20:26.000Z,6.40
2023-01-19T11:25:31.453Z,8.90
2023-01-19T11:30:35.305Z,7.03
2023-01-19T11:35:39.584Z,9.45
2023-01-19T11:40:46.906Z,7.85
2023-01-19T11:45:48.524Z,8.07
2023-01-19T11:50:53.373Z,8.00
2023-01-19T11:56:01.018Z,7.70
2023-01-19T12:01:30.050Z,6.60
2023-01-19T12:06:38.321Z,6.72
2023-01-19T12:11:48.807Z,10.00
2023-01-19T12:16:53.152Z,5.20
2023-01-19T12:21:55.717Z,6.13
2023-01-19T12:27:11.032Z,4.65
2023-01-19T12:32:15.546Z,7.50
2023-01-19T12:37:39.637Z,4.25
2023-01-19T12:42:46.890Z,3.85
2023-01-19T12:47:56.218Z,6.13
2023-01-19T12:53:01.562Z,5.18
2023-01-19T12:58:24.389Z,2.88
2023-01-19T13:03:25.771Z,2.80
2023-01-19T13:08:48.230Z,3.50
2023-01-19T13:13:49.632Z,5.07
2023-01-19T13:19:06.373Z,3.00
2023-01-19T13:24:20.014Z,3.88
2023-01-19T13:29:34.975Z,3.45
2023-01-19T13:34:43.663Z,3.92
2023-01-19T13:39:47.963Z,3.47
2023-01-19T13:44:53.394Z,3.05
2023-01-19T13:49:58.758Z,4.25
2023-01-19T13:55:03.808Z,5.82
2023-01-19T14:00:11.832Z,4.90
2023-01-19T14:05:15.021Z,4.07
2023-01-19T14:10:16.816Z,3.65
2023-01-19T14:15:18.401Z,3.92
2023-01-19T14:20:30.326Z,3.08
2023-01-19T14:25:36.549Z,3.55
2023-01-19T14:30:38.084Z,3.83
2023-01-19T14:35:39.545Z,3.30
2023-01-19T14:40:41.162Z,4.88
2023-01-19T14:45:47.432Z,3.80
2023-01-19T14:51:02.308Z,4.78
2023-01-19T14:56:05.958Z,3.33
2023-01-19T15:01:07.575Z,3.60
2023-01-19T15:06:22.684Z,4.93
2023-01-19T15:11:29.748Z,4.10
2023-01-19T15:16:33.863Z,4.82
2023-01-19T15:21:35.445Z,4.13
2023-01-19T15:26:41.854Z,5.07
2023-01-19T15:31:43.469Z,4.93
2023-01-19T15:36:45.146Z,6.95
2023-01-19T15:41:46.686Z,4.72
2023-01-19T15:46:48.184Z,9.75
2023-01-19T15:51:49.756Z,4.68
2023-01-19T15:56:51.279Z,5.03
2023-01-19T16:01:52.976Z,5.60
2023-01-19T16:06:54.651Z,5.63
2023-01-19T16:11:56.229Z,4.32
2023-01-19T16:16:57.673Z,6.30
2023-01-19T16:22:06.679Z,6.78
2023-01-19T16:27:08.224Z,4.33
2023-01-19T16:32:09.717Z,8.27
2023-01-19T16:37:11.784Z,14.48
2023-01-19T16:42:13.235Z,5.90
2023-01-19T16:47:14.842Z,5.38
2023-01-19T16:52:16.330Z,6.60
2023-01-19T16:57:17.779Z,8.88
2023-01-19T17:02:19.370Z,5.10
2023-01-19T17:07:20.889Z,7.35
2023-01-19T17:12:22.462Z,4.32
2023-01-19T17:17:24.021Z,5.60
2023-01-19T17:22:25.564Z,5.88
2023-01-19T17:27:27.025Z,7.55
2023-01-19T17:32:29.729Z,5.03
2023-01-19T17:37:31.322Z,9.27
2023-01-19T17:42:32.757Z,47.03
2023-01-19T17:47:34.279Z,52.58
2023-01-19T17:52:35.847Z,15.57
2023-01-19T17:57:37.374Z,9.75
2023-01-19T18:02:39.032Z,6.00
2023-01-19T18:07:40.528Z,6.22
2023-01-19T18:12:42.130Z,6.32
2023-01-19T18:17:43.771Z,6.53
2023-01-19T18:22:45.274Z,6.43
2023-01-19T18:27:46.716Z,5.03
2023-01-19T18:32:48.347Z,6.05
2023-01-19T18:37:49.793Z,5.22
2023-01-19T18:42:51.224Z,7.03
2023-01-19T18:47:52.705Z,6.32
2023-01-19T18:52:54.491Z,5.13
2023-01-19T18:57:55.994Z,6.35
2023-01-19T19:02:57.990Z,7.50
2023-01-19T19:07:59.496Z,5.18
2023-01-19T19:13:01.150Z,5.82
2023-01-19T19:18:02.657Z,6.00
2023-01-19T19:23:04.218Z,4.50
2023-01-19T19:28:05.698Z,6.18
2023-01-19T19:33:07.151Z,5.07
2023-01-19T19:38:08.577Z,6.75
2023-01-19T19:43:10.024Z,6.50
2023-01-19T19:48:11.530Z,5.75
2023-01-19T19:53:13.032Z,6.50
2023-01-19T19:58:14.539Z,6.90
2023-01-19T20:03:15.994Z,5.40
2023-01-19T20:08:17.431Z,5.00
2023-01-19T20:13:18.924Z,7.90
2023-01-19T20:18:20.432Z,11.43
2023-01-19T20:23:21.889Z,5.67
2023-01-19T20:28:23.410Z,8.63
2023-01-19T20:33:24.941Z,4.77
2023-01-19T20:38:26.387Z,5.60
2023-01-19T20:43:28.987Z,6.63
2023-01-19T20:48:30.924Z,5.27
2023-01-19T20:53:33.313Z,5.03
2023-01-19T20:58:34.845Z,4.90
2023-01-19T21:03:36.388Z,4.40
2023-01-19T21:08:37.992Z,7.63
2023-01-19T21:13:39.630Z,6.33
2023-01-19T21:18:41.270Z,5.97
2023-01-19T21:23:42.839Z,5.30
2023-01-19T21:28:44.297Z,6.17
2023-01-19T21:33:45.808Z,4.97
2023-01-19T21:38:47.345Z,6.00
2023-01-19T21:43:48.860Z,4.80
2023-01-19T21:48:50.348Z,4.23
2023-01-19T21:53:51.887Z,4.03
2023-01-19T21:58:54.448Z,3.73
2023-01-19T22:03:57.449Z,4.33
2023-01-19T22:08:59.013Z,4.30
2023-01-19T22:14:00.587Z,4.33
2023-01-19T22:19:02.132Z,5.13
2023-01-19T22:24:05.429Z,4.67
2023-01-19T22:29:07.285Z,3.77
2023-01-19T22:34:09.171Z,4.10
2023-01-19T22:39:11.992Z,4.17
2023-01-19T22:44:15.772Z,4.17
2023-01-19T22:49:18.196Z,4.27
2023-01-19T22:54:19.787Z,4.63
2023-01-19T22:59:21.333Z,4.97
2023-01-19T23:04:22.786Z,4.03
2023-01-19T23:09:24.307Z,3.83
2023-01-19T23:14:26.283Z,3.53
2023-01-19T23:19:27.745Z,5.30
2023-01-19T23:24:29.214Z,4.53
2023-01-19T23:29:30.665Z,4.07
2023-01-19T23:34:32.110Z,3.77
2023-01-19T23:39:33.663Z,4.27
2023-01-19T23:44:35.114Z,3.80
2023-01-19T23:49:36.612Z,4.47
2023-01-19T23:54:38.060Z,5.60
2023-01-19T23:59:39.556Z,4.00
